sensor_id;sensor_type;location;lat;lon;timestamp;pressure;altitude;pressure_sealevel;temperature;humidity
74905;BME280;63465;50.862;6.220;2023-07-30T00:01:29;99477.94;;;16.59;100.00
74905;BME280;63465;50.862;6.220;2023-07-30T00:03:54;99471.59;;;16.60;100.00
74905;BME280;63465;50.862;6.220;2023-07-30T00:06:19;99470.09;;;16.45;100.00
74905;BME280;63465;50.862;6.220;2023-07-30T00:08:45;99467.88;;;16.38;100.00
74905;BME280;63465;50.862;6.220;2023-07-30T00:11:10;99470.72;;;16.48;100.00
74905;BME280;63465;50.862;6.220;2023-07-30T00:13:35;99471.44;;;16.39;100.00
74905;BME280;63465;50.862;6.220;2023-07-30T00:16:00;99457.69;;;16.44;100.00
74905;BME280;63465;50.862;6.220;2023-07-30T00:18:26;99459.47;;;16.32;100.00
74905;BME280;63465;50.862;6.220;2023-07-30T00:20:51;99465.84;;;16.42;100.00
74905;BME280;63465;50.862;6.220;2023-07-30T00:23:16;99462.41;;;16.40;100.00
74905;BME280;63465;50.862;6.220;2023-07-30T00:25:42;99457.47;;;16.47;100.00
74905;BME280;63465;50.862;6.220;2023-07-30T00:28:07;99459.00;;;16.38;100.00
74905;BME280;63465;50.862;6.220;2023-07-30T00:30:32;99464.38;;;16.38;100.00
74905;BME280;63465;50.862;6.220;2023-07-30T00:32:57;99463.75;;;16.34;100.00
74905;BME280;63465;50.862;6.220;2023-07-30T00:35:23;99469.13;;;16.34;100.00
74905;BME280;63465;50.862;6.220;2023-07-30T00:37:48;99473.00;;;16.30;100.00
74905;BME280;63465;50.862;6.220;2023-07-30T00:40:13;99457.66;;;16.32;100.00
74905;BME280;63465;50.862;6.220;2023-07-30T00:42:39;99469.97;;;16.35;100.00
74905;BME280;63465;50.862;6.220;2023-07-30T00:45:04;99464.84;;;16.43;100.00
74905;BME280;63465;50.862;6.220;2023-07-30T00:47:30;99470.06;;;16.33;100.00
74905;BME280;63465;50.862;6.220;2023-07-30T00:49:56;99471.44;;;16.39;100.00
74905;BME280;63465;50.862;6.220;2023-07-30T00:52:23;99474.00;;;16.40;100.00
74905;BME280;63465;50.862;6.220;2023-07-30T00:54:49;99463.66;;;16.47;100.00
74905;BME280;63465;50.862;6.220;2023-07-30T00:57:15;99473.28;;;16.50;100.00
74905;BME280;63465;50.862;6.220;2023-07-30T00:59:42;99465.72;;;16.55;100.00
74905;BME280;63465;50.862;6.220;2023-07-30T01:02:07;99471.00;;;16.68;100.00
74905;BME280;63465;50.862;6.220;2023-07-30T01:04:33;99470.78;;;16.71;100.00
74905;BME280;63465;50.862;6.220;2023-07-30T01:06:58;99459.81;;;16.74;100.00
74905;BME280;63465;50.862;6.220;2023-07-30T01:09:23;99461.13;;;16.68;100.00
74905;BME280;63465;50.862;6.220;2023-07-30T01:11:50;99456.13;;;16.75;100.00
74905;BME280;63465;50.862;6.220;2023-07-30T01:14:16;99456.38;;;16.72;100.00
74905;BME280;63465;50.862;6.220;2023-07-30T01:16:44;99470.78;;;16.71;100.00
74905;BME280;63465;50.862;6.220;2023-07-30T01:19:09;99465.06;;;16.75;100.00
74905;BME280;63465;50.862;6.220;2023-07-30T01:21:35;99460.66;;;16.74;100.00
74905;BME280;63465;50.862;6.220;2023-07-30T01:24:00;99462.13;;;16.79;100.00
74905;BME280;63465;50.862;6.220;2023-07-30T01:26:32;99466.72;;;16.76;100.00
74905;BME280;63465;50.862;6.220;2023-07-30T01:29:00;99463.22;;;16.76;100.00
74905;BME280;63465;50.862;6.220;2023-07-30T01:31:30;99463.09;;;16.77;100.00
74905;BME280;63465;50.862;6.220;2023-07-30T01:33:56;99461.63;;;16.73;100.00
74905;BME280;63465;50.862;6.220;2023-07-30T01:36:22;99467.97;;;16.72;100.00
74905;BME280;63465;50.862;6.220;2023-07-30T01:38:49;99469.91;;;16.70;100.00
74905;BME280;63465;50.862;6.220;2023-07-30T01:41:14;99470.66;;;16.72;100.00
74905;BME280;63465;50.862;6.220;2023-07-30T01:43:39;99478.44;;;16.75;100.00
74905;BME280;63465;50.862;6.220;2023-07-30T01:46:05;99474.41;;;16.70;100.00
74905;BME280;63465;50.862;6.220;2023-07-30T01:48:30;99484.88;;;16.73;100.00
74905;BME280;63465;50.862;6.220;2023-07-30T01:50:55;99471.97;;;16.78;100.00
74905;BME280;63465;50.862;6.220;2023-07-30T01:53:20;99483.81;;;16.75;100.00
74905;BME280;63465;50.862;6.220;2023-07-30T01:55:46;99477.56;;;16.75;100.00
74905;BME280;63465;50.862;6.220;2023-07-30T01:58:14;99473.56;;;16.69;100.00
74905;BME280;63465;50.862;6.220;2023-07-30T02:00:40;99472.69;;;16.69;100.00
74905;BME280;63465;50.862;6.220;2023-07-30T02:03:06;99472.56;;;16.70;100.00
74905;BME280;63465;50.862;6.220;2023-07-30T02:05:31;99467.97;;;16.72;100.00
74905;BME280;63465;50.862;6.220;2023-07-30T02:07:57;99467.72;;;16.75;100.00
74905;BME280;63465;50.862;6.220;2023-07-30T02:10:24;99476.13;;;16.71;100.00
74905;BME280;63465;50.862;6.220;2023-07-30T02:12:49;99468.56;;;16.76;100.00
74905;BME280;63465;50.862;6.220;2023-07-30T02:15:15;99469.41;;;16.76;100.00
74905;BME280;63465;50.862;6.220;2023-07-30T02:17:40;99463.34;;;16.63;100.00
74905;BME280;63465;50.862;6.220;2023-07-30T02:20:06;99466.25;;;16.71;100.00
74905;BME280;63465;50.862;6.220;2023-07-30T02:22:31;99461.50;;;16.75;100.00
74905;BME280;63465;50.862;6.220;2023-07-30T02:24:57;99462.84;;;16.81;100.00
74905;BME280;63465;50.862;6.220;2023-07-30T02:27:22;99478.94;;;16.69;100.00
74905;BME280;63465;50.862;6.220;2023-07-30T02:29:48;99473.56;;;16.69;100.00
74905;BME280;63465;50.862;6.220;2023-07-30T02:32:13;99484.53;;;16.66;100.00
74905;BME280;63465;50.862;6.220;2023-07-30T02:34:38;99483.03;;;16.62;100.00
74905;BME280;63465;50.862;6.220;2023-07-30T02:37:04;99485.50;;;16.65;100.00
74905;BME280;63465;50.862;6.220;2023-07-30T02:39:29;99489.66;;;16.69;100.00
74905;BME280;63465;50.862;6.220;2023-07-30T02:41:54;99487.69;;;16.83;100.00
74905;BME280;63465;50.862;6.220;2023-07-30T02:44:20;99496.09;;;16.67;100.00
74905;BME280;63465;50.862;6.220;2023-07-30T02:46:45;99486.91;;;16.47;100.00
74905;BME280;63465;50.862;6.220;2023-07-30T02:49:10;99500.19;;;16.59;100.00
74905;BME280;63465;50.862;6.220;2023-07-30T02:51:35;99499.59;;;16.56;100.00
74905;BME280;63465;50.862;6.220;2023-07-30T02:54:04;99493.75;;;16.62;100.00
74905;BME280;63465;50.862;6.220;2023-07-30T02:56:30;99490.59;;;16.57;100.00
74905;BME280;63465;50.862;6.220;2023-07-30T02:58:58;99495.97;;;16.57;100.00
74905;BME280;63465;50.862;6.220;2023-07-30T03:01:23;99489.47;;;16.48;100.00
74905;BME280;63465;50.862;6.220;2023-07-30T03:03:49;99498.16;;;16.63;100.00
74905;BME280;63465;50.862;6.220;2023-07-30T03:06:14;99495.91;;;16.46;100.00
74905;BME280;63465;50.862;6.220;2023-07-30T03:08:42;99494.47;;;16.53;100.00
74905;BME280;63465;50.862;6.220;2023-07-30T03:11:07;99481.69;;;16.45;100.00
74905;BME280;63465;50.862;6.220;2023-07-30T03:13:32;99479.13;;;16.44;100.00
74905;BME280;63465;50.862;6.220;2023-07-30T03:15:58;99500.25;;;16.35;100.00
74905;BME280;63465;50.862;6.220;2023-07-30T03:18:23;99498.56;;;16.34;100.00
74905;BME280;63465;50.862;6.220;2023-07-30T03:20:48;99496.59;;;16.25;100.00
74905;BME280;63465;50.862;6.220;2023-07-30T03:23:13;99492.09;;;16.26;100.00
74905;BME280;63465;50.862;6.220;2023-07-30T03:25:39;99501.72;;;16.28;100.00
74905;BME280;63465;50.862;6.220;2023-07-30T03:28:04;99504.34;;;16.17;100.00
74905;BME280;63465;50.862;6.220;2023-07-30T03:30:30;99502.66;;;16.16;100.00
74905;BME280;63465;50.862;6.220;2023-07-30T03:32:55;99515.56;;;16.22;100.00
74905;BME280;63465;50.862;6.220;2023-07-30T03:35:20;99518.38;;;16.20;100.00
74905;BME280;63465;50.862;6.220;2023-07-30T03:37:46;99517.44;;;16.09;100.00
74905;BME280;63465;50.862;6.220;2023-07-30T03:40:11;99516.94;;;16.03;100.00
74905;BME280;63465;50.862;6.220;2023-07-30T03:42:36;99521.31;;;16.04;100.00
74905;BME280;63465;50.862;6.220;2023-07-30T03:45:02;99518.75;;;16.03;100.00
74905;BME280;63465;50.862;6.220;2023-07-30T03:47:27;99515.81;;;15.95;100.00
74905;BME280;63465;50.862;6.220;2023-07-30T03:49:52;99520.78;;;15.88;100.00
74905;BME280;63465;50.862;6.220;2023-07-30T03:52:18;99512.28;;;15.94;100.00
74905;BME280;63465;50.862;6.220;2023-07-30T03:54:43;99509.06;;;15.89;100.00
74905;BME280;63465;50.862;6.220;2023-07-30T03:57:08;99509.97;;;15.90;100.00
74905;BME280;63465;50.862;6.220;2023-07-30T03:59:34;99515.41;;;15.88;100.00
74905;BME280;63465;50.862;6.220;2023-07-30T04:01:59;99523.44;;;15.88;100.00
74905;BME280;63465;50.862;6.220;2023-07-30T04:04:24;99525.47;;;15.84;100.00
74905;BME280;63465;50.862;6.220;2023-07-30T04:06:49;99534.03;;;15.77;100.00
74905;BME280;63465;50.862;6.220;2023-07-30T04:09:15;99532.31;;;15.76;100.00
74905;BME280;63465;50.862;6.220;2023-07-30T04:11:40;99537.03;;;15.72;100.00
74905;BME280;63465;50.862;6.220;2023-07-30T04:14:05;99546.69;;;15.75;100.00
74905;BME280;63465;50.862;6.220;2023-07-30T04:16:33;99538.13;;;15.82;100.00
74905;BME280;63465;50.862;6.220;2023-07-30T04:18:58;99536.72;;;15.77;100.00
74905;BME280;63465;50.862;6.220;2023-07-30T04:21:24;99549.66;;;15.83;100.00
74905;BME280;63465;50.862;6.220;2023-07-30T04:23:49;99545.53;;;16.03;100.00
74905;BME280;63465;50.862;6.220;2023-07-30T04:26:14;99547.53;;;15.88;100.00
74905;BME280;63465;50.862;6.220;2023-07-30T04:28:40;99556.28;;;15.90;100.00
74905;BME280;63465;50.862;6.220;2023-07-30T04:31:05;99552.69;;;15.65;100.00
74905;BME280;63465;50.862;6.220;2023-07-30T04:33:30;99553.81;;;15.50;100.00
74905;BME280;63465;50.862;6.220;2023-07-30T04:35:55;99565.91;;;15.43;100.00
74905;BME280;63465;50.862;6.220;2023-07-30T04:38:21;99564.94;;;15.31;100.00
74905;BME280;63465;50.862;6.220;2023-07-30T04:40:46;99568.72;;;15.28;100.00
74905;BME280;63465;50.862;6.220;2023-07-30T04:43:11;99569.47;;;15.05;100.00
74905;BME280;63465;50.862;6.220;2023-07-30T04:45:37;99569.69;;;14.89;100.00
74905;BME280;63465;50.862;6.220;2023-07-30T04:48:02;99560.91;;;14.87;100.00
74905;BME280;63465;50.862;6.220;2023-07-30T04:50:27;99562.94;;;14.96;100.00
74905;BME280;63465;50.862;6.220;2023-07-30T04:52:53;99561.44;;;14.92;100.00
74905;BME280;63465;50.862;6.220;2023-07-30T04:55:18;99562.59;;;15.01;100.00
74905;BME280;63465;50.862;6.220;2023-07-30T04:57:43;99569.47;;;15.05;100.00
74905;BME280;63465;50.862;6.220;2023-07-30T05:00:09;99567.94;;;15.01;100.00
74905;BME280;63465;50.862;6.220;2023-07-30T05:02:34;99567.19;;;15.11;100.00
74905;BME280;63465;50.862;6.220;2023-07-30T05:05:00;99567.66;;;15.18;100.00
74905;BME280;63465;50.862;6.220;2023-07-30T05:07:25;99571.50;;;15.27;100.00
74905;BME280;63465;50.862;6.220;2023-07-30T05:09:50;99558.66;;;15.32;100.00
74905;BME280;63465;50.862;6.220;2023-07-30T05:12:15;99561.94;;;15.36;100.00
74905;BME280;63465;50.862;6.220;2023-07-30T05:14:41;99562.28;;;15.31;100.00
74905;BME280;63465;50.862;6.220;2023-07-30T05:17:06;99568.16;;;15.36;100.00
74905;BME280;63465;50.862;6.220;2023-07-30T05:19:31;99558.31;;;15.37;100.00
74905;BME280;63465;50.862;6.220;2023-07-30T05:21:57;99553.00;;;15.11;100.00
74905;BME280;63465;50.862;6.220;2023-07-30T05:24:24;99559.28;;;15.10;100.00
74905;BME280;63465;50.862;6.220;2023-07-30T05:26:49;99554.72;;;15.12;100.00
74905;BME280;63465;50.862;6.220;2023-07-30T05:29:15;99556.84;;;15.20;100.00
74905;BME280;63465;50.862;6.220;2023-07-30T05:31:40;99558.97;;;15.27;100.00
74905;BME280;63465;50.862;6.220;2023-07-30T05:34:05;99562.09;;;15.21;100.00
74905;BME280;63465;50.862;6.220;2023-07-30T05:36:31;99550.94;;;15.27;100.00
74905;BME280;63465;50.862;6.220;2023-07-30T05:38:56;99548.94;;;15.18;100.00
74905;BME280;63465;50.862;6.220;2023-07-30T05:41:21;99553.31;;;15.19;100.00
74905;BME280;63465;50.862;6.220;2023-07-30T05:43:47;99550.09;;;15.27;100.00
74905;BME280;63465;50.862;6.220;2023-07-30T05:46:13;99554.81;;;15.23;100.00
74905;BME280;63465;50.862;6.220;2023-07-30T05:48:38;99547.72;;;15.35;100.00
74905;BME280;63465;50.862;6.220;2023-07-30T05:51:03;99546.22;;;15.31;100.00
74905;BME280;63465;50.862;6.220;2023-07-30T05:53:29;99547.09;;;15.31;100.00
74905;BME280;63465;50.862;6.220;2023-07-30T05:55:54;99561.94;;;15.36;100.00
74905;BME280;63465;50.862;6.220;2023-07-30T05:58:19;99557.78;;;15.44;100.00
74905;BME280;63465;50.862;6.220;2023-07-30T06:00:44;99553.47;;;15.42;100.00
74905;BME280;63465;50.862;6.220;2023-07-30T06:03:10;99554.66;;;15.50;100.00
74905;BME280;63465;50.862;6.220;2023-07-30T06:05:40;99555.09;;;15.44;100.00
74905;BME280;63465;50.862;6.220;2023-07-30T06:08:06;99565.88;;;15.56;100.00
74905;BME280;63465;50.862;6.220;2023-07-30T06:10:37;99572.81;;;15.58;100.00
74905;BME280;63465;50.862;6.220;2023-07-30T06:13:03;99570.69;;;15.50;100.00
74905;BME280;63465;50.862;6.220;2023-07-30T06:15:29;99568.75;;;15.52;100.00
74905;BME280;63465;50.862;6.220;2023-07-30T06:17:55;99580.50;;;15.63;100.00
74905;BME280;63465;50.862;6.220;2023-07-30T06:20:21;99575.78;;;15.66;100.00
74905;BME280;63465;50.862;6.220;2023-07-30T06:22:46;99575.34;;;15.73;100.00
74905;BME280;63465;50.862;6.220;2023-07-30T06:25:11;99584.16;;;15.62;100.00
74905;BME280;63465;50.862;6.220;2023-07-30T06:27:36;99580.28;;;15.66;100.00
74905;BME280;63465;50.862;6.220;2023-07-30T06:30:02;99576.22;;;15.60;100.00
74905;BME280;63465;50.862;6.220;2023-07-30T06:32:28;99581.13;;;15.66;100.00
74905;BME280;63465;50.862;6.220;2023-07-30T06:34:53;99586.50;;;15.66;100.00
74905;BME280;63465;50.862;6.220;2023-07-30T06:37:18;99577.22;;;15.59;100.00
74905;BME280;63465;50.862;6.220;2023-07-30T06:39:44;99581.34;;;15.63;100.00
74905;BME280;63465;50.862;6.220;2023-07-30T06:42:09;99579.63;;;15.75;100.00
74905;BME280;63465;50.862;6.220;2023-07-30T06:44:34;99579.31;;;15.80;100.00
74905;BME280;63465;50.862;6.220;2023-07-30T06:47:00;99583.28;;;15.87;100.00
74905;BME280;63465;50.862;6.220;2023-07-30T06:49:26;99571.41;;;15.78;100.00
74905;BME280;63465;50.862;6.220;2023-07-30T06:51:52;99572.69;;;15.85;100.00
74905;BME280;63465;50.862;6.220;2023-07-30T06:54:17;99569.91;;;15.87;100.00
74905;BME280;63465;50.862;6.220;2023-07-30T06:56:42;99575.06;;;16.01;100.00
74905;BME280;63465;50.862;6.220;2023-07-30T06:59:07;99580.66;;;15.98;100.00
74905;BME280;63465;50.862;6.220;2023-07-30T07:01:33;99581.44;;;15.87;100.00
74905;BME280;63465;50.862;6.220;2023-07-30T07:03:58;99589.91;;;15.94;100.00
74905;BME280;63465;50.862;6.220;2023-07-30T07:06:24;99591.66;;;16.07;100.00
74905;BME280;63465;50.862;6.220;2023-07-30T07:08:49;99600.16;;;16.00;100.00
74905;BME280;63465;50.862;6.220;2023-07-30T07:11:14;99596.09;;;16.19;100.00
74905;BME280;63465;50.862;6.220;2023-07-30T07:13:39;99601.59;;;16.04;100.00
74905;BME280;63465;50.862;6.220;2023-07-30T07:16:05;99607.03;;;16.16;100.00
74905;BME280;63465;50.862;6.220;2023-07-30T07:18:30;99605.56;;;16.12;100.00
74905;BME280;63465;50.862;6.220;2023-07-30T07:20:55;99602.94;;;15.99;100.00
74905;BME280;63465;50.862;6.220;2023-07-30T07:23:21;99605.50;;;16.25;100.00
74905;BME280;63465;50.862;6.220;2023-07-30T07:25:46;99602.25;;;16.08;100.00
74905;BME280;63465;50.862;6.220;2023-07-30T07:28:11;99607.59;;;16.32;100.00
74905;BME280;63465;50.862;6.220;2023-07-30T07:30:37;99612.31;;;16.04;100.00
74905;BME280;63465;50.862;6.220;2023-07-30T07:33:02;99608.16;;;16.25;100.00
74905;BME280;63465;50.862;6.220;2023-07-30T07:35:27;99617.06;;;16.49;100.00
74905;BME280;63465;50.862;6.220;2023-07-30T07:37:53;99611.50;;;16.28;100.00
74905;BME280;63465;50.862;6.220;2023-07-30T07:40:18;99621.97;;;16.55;100.00
74905;BME280;63465;50.862;6.220;2023-07-30T07:42:43;99612.22;;;16.54;100.00
74905;BME280;63465;50.862;6.220;2023-07-30T07:45:09;99616.31;;;16.83;100.00
74905;BME280;63465;50.862;6.220;2023-07-30T07:47:34;99611.19;;;16.80;100.00
74905;BME280;63465;50.862;6.220;2023-07-30T07:49:59;99613.16;;;16.77;100.00
74905;BME280;63465;50.862;6.220;2023-07-30T07:52:25;99610.44;;;16.66;100.00
74905;BME280;63465;50.862;6.220;2023-07-30T07:54:50;99614.88;;;16.54;100.00
74905;BME280;63465;50.862;6.220;2023-07-30T07:57:15;99622.25;;;16.39;100.00
74905;BME280;63465;50.862;6.220;2023-07-30T07:59:41;99624.22;;;16.73;100.00
74905;BME280;63465;50.862;6.220;2023-07-30T08:02:10;99615.94;;;16.40;100.00
74905;BME280;63465;50.862;6.220;2023-07-30T08:04:35;99621.75;;;16.58;100.00
74905;BME280;63465;50.862;6.220;2023-07-30T08:07:01;99627.22;;;16.57;100.00
74905;BME280;63465;50.862;6.220;2023-07-30T08:09:28;99629.59;;;16.84;100.00
74905;BME280;63465;50.862;6.220;2023-07-30T08:11:54;99619.09;;;16.70;100.00
74905;BME280;63465;50.862;6.220;2023-07-30T08:14:19;99623.06;;;16.88;100.00
74905;BME280;63465;50.862;6.220;2023-07-30T08:16:44;99618.88;;;16.84;100.00
74905;BME280;63465;50.862;6.220;2023-07-30T08:19:09;99607.91;;;16.76;100.00
74905;BME280;63465;50.862;6.220;2023-07-30T08:21:35;99616.50;;;16.92;100.00
74905;BME280;63465;50.862;6.220;2023-07-30T08:24:00;99608.25;;;16.96;100.00
74905;BME280;63465;50.862;6.220;2023-07-30T08:26:25;99603.66;;;17.32;100.00
74905;BME280;63465;50.862;6.220;2023-07-30T08:28:51;99608.41;;;17.39;100.00
74905;BME280;63465;50.862;6.220;2023-07-30T08:31:16;99600.38;;;17.51;100.00
74905;BME280;63465;50.862;6.220;2023-07-30T08:33:41;99606.94;;;17.24;100.00
74905;BME280;63465;50.862;6.220;2023-07-30T08:36:06;99597.19;;;17.91;100.00
74905;BME280;63465;50.862;6.220;2023-07-30T08:38:32;99611.56;;;17.33;100.00
74905;BME280;63465;50.862;6.220;2023-07-30T08:40:57;99606.97;;;17.35;100.00
74905;BME280;63465;50.862;6.220;2023-07-30T08:43:22;99619.13;;;17.17;100.00
74905;BME280;63465;50.862;6.220;2023-07-30T08:45:48;99618.63;;;17.11;100.00
74905;BME280;63465;50.862;6.220;2023-07-30T08:48:13;99617.94;;;17.43;100.00
74905;BME280;63465;50.862;6.220;2023-07-30T08:50:39;99626.34;;;17.27;100.00
74905;BME280;63465;50.862;6.220;2023-07-30T08:53:07;99621.56;;;17.31;100.00
74905;BME280;63465;50.862;6.220;2023-07-30T08:55:33;99611.94;;;17.28;100.00
74905;BME280;63465;50.862;6.220;2023-07-30T08:58:01;99611.59;;;17.44;100.00
74905;BME280;63465;50.862;6.220;2023-07-30T09:00:30;99613.66;;;17.63;100.00
74905;BME280;63465;50.862;6.220;2023-07-30T09:02:58;99612.19;;;17.71;100.00
74905;BME280;63465;50.862;6.220;2023-07-30T09:05:25;99612.31;;;17.80;100.00
74905;BME280;63465;50.862;6.220;2023-07-30T09:07:54;99616.34;;;17.63;100.00
74905;BME280;63465;50.862;6.220;2023-07-30T09:10:19;99606.75;;;18.60;100.00
74905;BME280;63465;50.862;6.220;2023-07-30T09:12:45;99597.44;;;19.48;100.00
74905;BME280;63465;50.862;6.220;2023-07-30T09:15:10;99598.13;;;18.45;100.00
74905;BME280;63465;50.862;6.220;2023-07-30T09:17:37;99604.56;;;18.86;100.00
74905;BME280;63465;50.862;6.220;2023-07-30T09:20:03;99609.06;;;18.64;100.00
74905;BME280;63465;50.862;6.220;2023-07-30T09:22:31;99606.75;;;18.92;100.00
74905;BME280;63465;50.862;6.220;2023-07-30T09:25:01;99605.94;;;19.01;100.00
74905;BME280;63465;50.862;6.220;2023-07-30T09:27:27;99609.47;;;20.45;100.00
74905;BME280;63465;50.862;6.220;2023-07-30T09:29:57;99611.53;;;20.12;100.00
74905;BME280;63465;50.862;6.220;2023-07-30T09:32:30;99612.59;;;20.79;100.00
74905;BME280;63465;50.862;6.220;2023-07-30T09:37:33;99604.34;;;20.42;100.00
74905;BME280;63465;50.862;6.220;2023-07-30T09:40:01;99605.94;;;19.53;100.00
74905;BME280;63465;50.862;6.220;2023-07-30T09:42:27;99593.41;;;20.34;100.00
74905;BME280;63465;50.862;6.220;2023-07-30T09:44:52;99605.03;;;20.24;100.00
74905;BME280;63465;50.862;6.220;2023-07-30T09:47:18;99607.81;;;19.93;100.00
74905;BME280;63465;50.862;6.220;2023-07-30T09:49:43;99601.84;;;19.90;100.00
74905;BME280;63465;50.862;6.220;2023-07-30T09:52:10;99602.34;;;20.44;100.00
74905;BME280;63465;50.862;6.220;2023-07-30T09:54:36;99606.94;;;20.73;100.00
74905;BME280;63465;50.862;6.220;2023-07-30T09:57:02;99598.94;;;20.52;100.00
74905;BME280;63465;50.862;6.220;2023-07-30T09:59:29;99605.91;;;20.93;100.00
74905;BME280;63465;50.862;6.220;2023-07-30T10:01:55;99602.25;;;20.55;100.00
74905;BME280;63465;50.862;6.220;2023-07-30T10:04:21;99611.66;;;20.10;100.00
74905;BME280;63465;50.862;6.220;2023-07-30T10:06:54;99620.13;;;19.86;100.00
74905;BME280;63465;50.862;6.220;2023-07-30T10:09:21;99620.41;;;19.83;100.00
74905;BME280;63465;50.862;6.220;2023-07-30T10:11:49;99614.56;;;20.48;100.00
74905;BME280;63465;50.862;6.220;2023-07-30T10:14:17;99617.53;;;20.45;100.00
74905;BME280;63465;50.862;6.220;2023-07-30T10:16:53;99607.44;;;21.15;97.79
74905;BME280;63465;50.862;6.220;2023-07-30T10:19:22;99599.72;;;21.78;95.40
74905;BME280;63465;50.862;6.220;2023-07-30T10:21:48;99607.38;;;20.68;100.00
74905;BME280;63465;50.862;6.220;2023-07-30T10:24:13;99611.75;;;20.79;100.00
74905;BME280;63465;50.862;6.220;2023-07-30T10:26:39;99615.56;;;20.47;100.00
74905;BME280;63465;50.862;6.220;2023-07-30T10:29:19;99618.69;;;20.91;100.00
74905;BME280;63465;50.862;6.220;2023-07-30T10:31:55;99625.91;;;22.23;98.27
74905;BME280;63465;50.862;6.220;2023-07-30T10:34:22;99621.22;;;21.69;96.25
74905;BME280;63465;50.862;6.220;2023-07-30T10:36:50;99620.53;;;21.00;100.00
74905;BME280;63465;50.862;6.220;2023-07-30T10:39:17;99624.16;;;20.02;100.00
74905;BME280;63465;50.862;6.220;2023-07-30T10:41:44;99607.31;;;20.39;100.00
74905;BME280;63465;50.862;6.220;2023-07-30T10:44:18;99619.25;;;20.46;100.00
74905;BME280;63465;50.862;6.220;2023-07-30T10:46:44;99623.81;;;20.84;100.00
74905;BME280;63465;50.862;6.220;2023-07-30T10:49:09;99625.78;;;20.43;100.00
74905;BME280;63465;50.862;6.220;2023-07-30T10:51:37;99631.47;;;20.79;100.00
74905;BME280;63465;50.862;6.220;2023-07-30T10:54:05;99632.28;;;20.31;100.00
74905;BME280;63465;50.862;6.220;2023-07-30T10:56:31;99618.81;;;20.99;100.00
74905;BME280;63465;50.862;6.220;2023-07-30T10:58:57;99624.19;;;20.41;100.00
74905;BME280;63465;50.862;6.220;2023-07-30T11:01:25;99628.94;;;20.88;99.19
74905;BME280;63465;50.862;6.220;2023-07-30T11:03:51;99623.09;;;21.12;97.33
74905;BME280;63465;50.862;6.220;2023-07-30T11:06:25;99641.41;;;20.79;100.00
74905;BME280;63465;50.862;6.220;2023-07-30T11:08:50;99635.44;;;20.46;100.00
74905;BME280;63465;50.862;6.220;2023-07-30T11:11:16;99644.47;;;20.25;100.00
74905;BME280;63465;50.862;6.220;2023-07-30T11:13:45;99650.31;;;19.80;100.00
74905;BME280;63465;50.862;6.220;2023-07-30T11:16:12;99644.25;;;19.36;100.00
74905;BME280;63465;50.862;6.220;2023-07-30T11:18:38;99651.19;;;20.51;100.00
74905;BME280;63465;50.862;6.220;2023-07-30T11:21:04;99651.84;;;20.23;100.00
74905;BME280;63465;50.862;6.220;2023-07-30T11:23:30;99657.19;;;20.13;100.00
74905;BME280;63465;50.862;6.220;2023-07-30T11:25:55;99664.00;;;20.08;100.00
74905;BME280;63465;50.862;6.220;2023-07-30T11:28:30;99661.97;;;19.69;100.00
74905;BME280;63465;50.862;6.220;2023-07-30T11:31:01;99665.06;;;19.65;100.00
74905;BME280;63465;50.862;6.220;2023-07-30T11:33:28;99659.75;;;19.53;100.00
74905;BME280;63465;50.862;6.220;2023-07-30T11:35:54;99674.94;;;19.54;100.00
74905;BME280;63465;50.862;6.220;2023-07-30T11:38:22;99657.66;;;19.57;100.00
74905;BME280;63465;50.862;6.220;2023-07-30T11:40:47;99660.81;;;19.83;100.00
74905;BME280;63465;50.862;6.220;2023-07-30T11:43:13;99670.53;;;20.15;100.00
74905;BME280;63465;50.862;6.220;2023-07-30T11:45:39;99670.88;;;20.51;100.00
74905;BME280;63465;50.862;6.220;2023-07-30T11:48:11;99672.06;;;20.78;100.00
74905;BME280;63465;50.862;6.220;2023-07-30T11:50:50;99675.19;;;20.73;100.00
74905;BME280;63465;50.862;6.220;2023-07-30T11:53:17;99656.91;;;20.17;100.00
74905;BME280;63465;50.862;6.220;2023-07-30T11:55:43;99668.53;;;20.67;100.00
74905;BME280;63465;50.862;6.220;2023-07-30T11:58:10;99663.31;;;20.25;100.00
74905;BME280;63465;50.862;6.220;2023-07-30T12:00:40;99679.34;;;20.17;100.00
74905;BME280;63465;50.862;6.220;2023-07-30T12:03:08;99680.09;;;19.98;100.00
74905;BME280;63465;50.862;6.220;2023-07-30T12:05:35;99680.59;;;20.13;100.00
74905;BME280;63465;50.862;6.220;2023-07-30T12:08:01;99686.66;;;19.74;100.00
74905;BME280;63465;50.862;6.220;2023-07-30T12:10:40;99695.81;;;19.83;100.00
74905;BME280;63465;50.862;6.220;2023-07-30T12:13:15;99688.53;;;21.04;100.00
74905;BME280;63465;50.862;6.220;2023-07-30T12:15:43;99684.28;;;20.72;100.00
74905;BME280;63465;50.862;6.220;2023-07-30T12:18:09;99679.50;;;20.35;100.00
74905;BME280;63465;50.862;6.220;2023-07-30T12:20:34;99684.56;;;20.98;100.00
74905;BME280;63465;50.862;6.220;2023-07-30T12:23:00;99694.63;;;20.17;100.00
74905;BME280;63465;50.862;6.220;2023-07-30T12:25:26;99694.44;;;19.99;100.00
74905;BME280;63465;50.862;6.220;2023-07-30T12:27:51;99702.13;;;19.51;100.00
74905;BME280;63465;50.862;6.220;2023-07-30T12:30:16;99695.91;;;20.12;100.00
74905;BME280;63465;50.862;6.220;2023-07-30T12:32:41;99706.84;;;20.21;100.00
74905;BME280;63465;50.862;6.220;2023-07-30T12:35:07;99692.66;;;20.79;100.00
74905;BME280;63465;50.862;6.220;2023-07-30T12:37:32;99700.56;;;21.39;100.00
74905;BME280;63465;50.862;6.220;2023-07-30T12:40:00;99699.72;;;21.58;100.00
74905;BME280;63465;50.862;6.220;2023-07-30T12:42:25;99694.78;;;20.85;99.18
74905;BME280;63465;50.862;6.220;2023-07-30T12:44:50;99709.41;;;20.22;100.00
74905;BME280;63465;50.862;6.220;2023-07-30T12:47:16;99711.19;;;20.62;100.00